RPB7373 MKJS-TNCM
Flight info
| Callsign | RPB7373 |
|---|---|
| Flight time | 2h 5m |
| Altitude | 37000 |
| Route | ROSTO2 ROSTO DCT SAVEM DCT KEBET DCT PAP DCT ETBOD DCT ANTEX DCT GOUDA |
| Aircraft | B738/M-SDE2E3FGHIRWXY/LB1 |
Departure
| Time | 2026-05-05 22:58 |
|---|---|
| Airport | Sangster International Airport (MKJS) |
Arrival
| Time | 2026-05-06 01:03 |
|---|---|
| Airport | Princess Juliana International Airport (TNCM) |
| Time | Latitude | Longitude | Altitude | Speed | Heading |
|---|---|---|---|---|---|
| 2026-05-05 22:05 | 18.49979 | -77.91424 | 26 ft | 0 kts | 155° |
| 2026-05-05 22:40 | 18.49986 | -77.91428 | 34 ft | 4 kts | 154° |
| 2026-05-05 22:40 | 18.50010 | -77.91441 | 35 ft | 4 kts | 150° |
| 2026-05-05 22:40 | 18.50031 | -77.91453 | 35 ft | 4 kts | 158° |
| 2026-05-05 22:40 | 18.50056 | -77.91458 | 32 ft | 4 kts | 198° |
| 2026-05-05 22:41 | 18.50074 | -77.91443 | 35 ft | 4 kts | 245° |
| 2026-05-05 22:41 | 18.50083 | -77.91416 | 39 ft | 4 kts | 257° |
| 2026-05-05 22:41 | 18.50090 | -77.91391 | 32 ft | 2 kts | 245° |
| 2026-05-05 22:41 | 18.50090 | -77.91390 | 32 ft | 1 kts | 245° |
| 2026-05-05 22:44 | 18.50090 | -77.91391 | 32 ft | 1 kts | 245° |
| 2026-05-05 22:45 | 18.50075 | -77.91426 | 36 ft | 7 kts | 246° |
| 2026-05-05 22:45 | 18.50056 | -77.91469 | 38 ft | 6 kts | 247° |
| 2026-05-05 22:45 | 18.50037 | -77.91511 | 38 ft | 6 kts | 245° |
| 2026-05-05 22:45 | 18.50032 | -77.91553 | 40 ft | 6 kts | 300° |
| 2026-05-05 22:46 | 18.50061 | -77.91587 | 37 ft | 6 kts | 295° |
| 2026-05-05 22:46 | 18.50063 | -77.91609 | 38 ft | 0 kts | 251° |
| 2026-05-05 22:47 | 18.50061 | -77.91615 | 38 ft | 2 kts | 251° |
| 2026-05-05 22:47 | 18.50053 | -77.91638 | 38 ft | 9 kts | 250° |
| 2026-05-05 22:48 | 18.50023 | -77.91718 | 34 ft | 12 kts | 247° |
| 2026-05-05 22:48 | 18.49988 | -77.91800 | 37 ft | 12 kts | 245° |
| 2026-05-05 22:48 | 18.49954 | -77.91877 | 37 ft | 12 kts | 246° |
| 2026-05-05 22:48 | 18.49920 | -77.91954 | 35 ft | 11 kts | 245° |
| 2026-05-05 22:49 | 18.49888 | -77.92029 | 37 ft | 11 kts | 245° |
| 2026-05-05 22:49 | 18.49855 | -77.92101 | 40 ft | 11 kts | 245° |
| 2026-05-05 22:49 | 18.49824 | -77.92171 | 35 ft | 10 kts | 245° |
| 2026-05-05 22:49 | 18.49801 | -77.92225 | 37 ft | 5 kts | 245° |
| 2026-05-05 22:50 | 18.49785 | -77.92261 | 39 ft | 6 kts | 245° |
| 2026-05-05 22:50 | 18.49767 | -77.92305 | 33 ft | 7 kts | 246° |
| 2026-05-05 22:50 | 18.49748 | -77.92349 | 36 ft | 6 kts | 249° |
| 2026-05-05 22:50 | 18.49751 | -77.92387 | 40 ft | 5 kts | 304° |
| 2026-05-05 22:51 | 18.49767 | -77.92401 | 40 ft | 0 kts | 321° |
| 2026-05-05 22:51 | 18.49770 | -77.92404 | 40 ft | 1 kts | 327° |
| 2026-05-05 22:51 | 18.49775 | -77.92407 | 40 ft | 1 kts | 327° |
| 2026-05-05 22:52 | 18.49781 | -77.92410 | 40 ft | 1 kts | 329° |
| 2026-05-05 22:52 | 18.49805 | -77.92424 | 36 ft | 0 kts | 333° |
| 2026-05-05 22:52 | 18.49806 | -77.92424 | 36 ft | 0 kts | 333° |
| 2026-05-05 22:53 | 18.49825 | -77.92432 | 33 ft | 9 kts | 339° |
| 2026-05-05 22:54 | 18.49887 | -77.92431 | 38 ft | 10 kts | 39° |
| 2026-05-05 22:54 | 18.49899 | -77.92414 | 36 ft | 2 kts | 59° |
| 2026-05-05 22:54 | 18.49903 | -77.92408 | 34 ft | 1 kts | 63° |
| 2026-05-05 22:54 | 18.49905 | -77.92403 | 35 ft | 0 kts | 64° |
| 2026-05-05 22:58 | 18.49978 | -77.92236 | 35 ft | 69 kts | 66° |
| 2026-05-05 22:58 | 18.50293 | -77.91480 | 51 ft | 151 kts | 69° |
| 2026-05-05 22:58 | 18.50731 | -77.90374 | 851 ft | 170 kts | 70° |
| 2026-05-05 22:58 | 18.51373 | -77.89340 | 1945 ft | 172 kts | 39° |
| 2026-05-05 22:59 | 18.52441 | -77.88782 | 3069 ft | 177 kts | 24° |
| 2026-05-05 22:59 | 18.53602 | -77.88038 | 3470 ft | 212 kts | 34° |
| 2026-05-05 22:59 | 18.54963 | -77.87226 | 3685 ft | 237 kts | 27° |
| 2026-05-05 22:59 | 18.56476 | -77.86428 | 4148 ft | 247 kts | 33° |
| 2026-05-05 23:00 | 18.58346 | -77.83450 | 5359 ft | 250 kts | 79° |
| 2026-05-05 23:00 | 18.58507 | -77.81608 | 5962 ft | 252 kts | 90° |
| 2026-05-05 23:00 | 18.58516 | -77.79780 | 6588 ft | 254 kts | 92° |
| 2026-05-05 23:01 | 18.58502 | -77.77913 | 7176 ft | 256 kts | 91° |
| 2026-05-05 23:01 | 18.58486 | -77.76018 | 7712 ft | 260 kts | 91° |
| 2026-05-05 23:01 | 18.58470 | -77.74100 | 8258 ft | 263 kts | 91° |
| 2026-05-05 23:01 | 18.58457 | -77.72148 | 8856 ft | 264 kts | 91° |
| 2026-05-05 23:02 | 18.58447 | -77.70225 | 9406 ft | 267 kts | 90° |
| 2026-05-05 23:02 | 18.58438 | -77.68249 | 9939 ft | 270 kts | 90° |
| 2026-05-05 23:02 | 18.58432 | -77.66927 | 10255 ft | 272 kts | 90° |
| 2026-05-05 23:02 | 18.58425 | -77.64908 | 10722 ft | 277 kts | 90° |
| 2026-05-05 23:03 | 18.58416 | -77.62183 | 11392 ft | 285 kts | 90° |
| 2026-05-05 23:03 | 18.58412 | -77.60739 | 11552 ft | 299 kts | 90° |
| 2026-05-05 23:03 | 18.58405 | -77.58442 | 11716 ft | 325 kts | 90° |
| 2026-05-05 23:03 | 18.58398 | -77.55994 | 11888 ft | 347 kts | 90° |
| 2026-05-05 23:04 | 18.58390 | -77.53392 | 12316 ft | 359 kts | 90° |
| 2026-05-05 23:04 | 18.58382 | -77.50745 | 12937 ft | 365 kts | 91° |
| 2026-05-05 23:04 | 18.58375 | -77.48039 | 13481 ft | 372 kts | 91° |
| 2026-05-05 23:04 | 18.58367 | -77.45302 | 14141 ft | 375 kts | 90° |
| 2026-05-05 23:05 | 18.58359 | -77.42558 | 14810 ft | 376 kts | 90° |
| 2026-05-05 23:05 | 18.58351 | -77.39804 | 15281 ft | 383 kts | 90° |
| 2026-05-05 23:05 | 18.58342 | -77.36984 | 15946 ft | 383 kts | 90° |
| 2026-05-05 23:05 | 18.58332 | -77.34151 | 16552 ft | 387 kts | 90° |
| 2026-05-05 23:06 | 18.58322 | -77.31303 | 17178 ft | 388 kts | 90° |
| 2026-05-05 23:06 | 18.58312 | -77.28457 | 17864 ft | 389 kts | 89° |
| 2026-05-05 23:06 | 18.58301 | -77.25606 | 18397 ft | 394 kts | 89° |
| 2026-05-05 23:06 | 18.58290 | -77.22704 | 18823 ft | 399 kts | 89° |
| 2026-05-05 23:07 | 18.58277 | -77.19761 | 19316 ft | 402 kts | 89° |
| 2026-05-05 23:07 | 18.58263 | -77.16775 | 19722 ft | 409 kts | 89° |
| 2026-05-05 23:07 | 18.58251 | -77.13805 | 20222 ft | 410 kts | 89° |
| 2026-05-05 23:07 | 18.58237 | -77.10783 | 20745 ft | 413 kts | 89° |
| 2026-05-05 23:08 | 18.58222 | -77.07746 | 21183 ft | 417 kts | 89° |
| 2026-05-05 23:08 | 18.58206 | -77.04689 | 21771 ft | 416 kts | 89° |
| 2026-05-05 23:08 | 18.58190 | -77.01624 | 22216 ft | 420 kts | 88° |
| 2026-05-05 23:08 | 18.58174 | -76.98518 | 22596 ft | 425 kts | 88° |
| 2026-05-05 23:09 | 18.58157 | -76.95399 | 23147 ft | 425 kts | 88° |
| 2026-05-05 23:09 | 18.58140 | -76.92309 | 23557 ft | 429 kts | 88° |
| 2026-05-05 23:09 | 18.58122 | -76.89133 | 23902 ft | 433 kts | 88° |
| 2026-05-05 23:09 | 18.58103 | -76.85957 | 24308 ft | 434 kts | 88° |
| 2026-05-05 23:10 | 18.58083 | -76.82763 | 24712 ft | 436 kts | 88° |
| 2026-05-05 23:10 | 18.58063 | -76.79565 | 25077 ft | 438 kts | 88° |
| 2026-05-05 23:10 | 18.58042 | -76.76338 | 25443 ft | 440 kts | 88° |
| 2026-05-05 23:10 | 18.58021 | -76.73138 | 25793 ft | 443 kts | 88° |
| 2026-05-05 23:11 | 18.57999 | -76.69881 | 26144 ft | 445 kts | 88° |
| 2026-05-05 23:11 | 18.57976 | -76.66607 | 26503 ft | 447 kts | 88° |
| 2026-05-05 23:11 | 18.57953 | -76.63320 | 26861 ft | 449 kts | 87° |
| 2026-05-05 23:11 | 18.57929 | -76.60028 | 27201 ft | 451 kts | 87° |
| 2026-05-05 23:12 | 18.57904 | -76.56707 | 27536 ft | 454 kts | 87° |
| 2026-05-05 23:12 | 18.57878 | -76.53370 | 27859 ft | 456 kts | 87° |
| 2026-05-05 23:12 | 18.57852 | -76.50049 | 28188 ft | 458 kts | 87° |
| 2026-05-05 23:12 | 18.57825 | -76.46686 | 28495 ft | 460 kts | 87° |
| 2026-05-05 23:13 | 18.57798 | -76.43298 | 28793 ft | 463 kts | 87° |
| 2026-05-05 23:13 | 18.57769 | -76.39890 | 29099 ft | 465 kts | 87° |
| 2026-05-05 23:13 | 18.57740 | -76.36464 | 29405 ft | 467 kts | 86° |
| 2026-05-05 23:13 | 18.57710 | -76.33027 | 29706 ft | 469 kts | 86° |
| 2026-05-05 23:14 | 18.57679 | -76.29623 | 29986 ft | 471 kts | 86° |
| 2026-05-05 23:14 | 18.57648 | -76.26167 | 30234 ft | 473 kts | 86° |
| 2026-05-05 23:14 | 18.57615 | -76.22689 | 30483 ft | 474 kts | 86° |
| 2026-05-05 23:14 | 18.57582 | -76.19203 | 30768 ft | 475 kts | 86° |
| 2026-05-05 23:15 | 18.57547 | -76.15717 | 31117 ft | 474 kts | 86° |
| 2026-05-05 23:15 | 18.57512 | -76.12250 | 31492 ft | 472 kts | 86° |
| 2026-05-05 23:15 | 18.57477 | -76.08825 | 31809 ft | 472 kts | 86° |
| 2026-05-05 23:15 | 18.57441 | -76.05374 | 32165 ft | 471 kts | 86° |
| 2026-05-05 23:16 | 18.57405 | -76.01924 | 32539 ft | 470 kts | 86° |
| 2026-05-05 23:16 | 18.57368 | -75.98483 | 32926 ft | 468 kts | 86° |
| 2026-05-05 23:16 | 18.57331 | -75.95059 | 33292 ft | 467 kts | 86° |
| 2026-05-05 23:16 | 18.57294 | -75.91643 | 33646 ft | 466 kts | 86° |
| 2026-05-05 23:17 | 18.57256 | -75.88227 | 33989 ft | 465 kts | 86° |
| 2026-05-05 23:17 | 18.57218 | -75.84824 | 34272 ft | 465 kts | 86° |
| 2026-05-05 23:17 | 18.57179 | -75.81404 | 34501 ft | 465 kts | 87° |
| 2026-05-05 23:17 | 18.57140 | -75.78023 | 34725 ft | 467 kts | 87° |
| 2026-05-05 23:18 | 18.57100 | -75.74594 | 34904 ft | 469 kts | 87° |
| 2026-05-05 23:18 | 18.57059 | -75.71146 | 35144 ft | 469 kts | 86° |
| 2026-05-05 23:18 | 18.57016 | -75.67705 | 35455 ft | 468 kts | 86° |
| 2026-05-05 23:18 | 18.56973 | -75.64274 | 35716 ft | 468 kts | 87° |
| 2026-05-05 23:19 | 18.56931 | -75.60845 | 35914 ft | 469 kts | 87° |
| 2026-05-05 23:19 | 18.56887 | -75.57399 | 36116 ft | 470 kts | 87° |
| 2026-05-05 23:19 | 18.56843 | -75.53997 | 36352 ft | 470 kts | 87° |
| 2026-05-05 23:19 | 18.56797 | -75.50511 | 36617 ft | 469 kts | 87° |
| 2026-05-05 23:20 | 18.56752 | -75.47109 | 36855 ft | 470 kts | 87° |
| 2026-05-05 23:20 | 18.56705 | -75.43659 | 37044 ft | 471 kts | 87° |
| 2026-05-05 23:20 | 18.56611 | -75.36692 | 37078 ft | 476 kts | 88° |
| 2026-05-05 23:21 | 18.56512 | -75.29713 | 37073 ft | 474 kts | 88° |
| 2026-05-05 23:21 | 18.56410 | -75.22849 | 37076 ft | 469 kts | 88° |
| 2026-05-05 23:22 | 18.56308 | -75.15985 | 37078 ft | 468 kts | 88° |
| 2026-05-05 23:22 | 18.56205 | -75.09121 | 37084 ft | 467 kts | 88° |
| 2026-05-05 23:23 | 18.56099 | -75.02318 | 37080 ft | 467 kts | 88° |
| 2026-05-05 23:23 | 18.55990 | -74.95466 | 37083 ft | 467 kts | 88° |
| 2026-05-05 23:24 | 18.55879 | -74.88609 | 37081 ft | 468 kts | 88° |
| 2026-05-05 23:24 | 18.55766 | -74.81783 | 37077 ft | 469 kts | 88° |
| 2026-05-05 23:25 | 18.55648 | -74.74878 | 37079 ft | 470 kts | 88° |
| 2026-05-05 23:25 | 18.55528 | -74.67970 | 37083 ft | 471 kts | 88° |
| 2026-05-05 23:26 | 18.55406 | -74.61062 | 37076 ft | 472 kts | 88° |
| 2026-05-05 23:26 | 18.55281 | -74.54169 | 37081 ft | 473 kts | 88° |
| 2026-05-05 23:27 | 18.55153 | -74.47221 | 37084 ft | 473 kts | 88° |
| 2026-05-05 23:27 | 18.55022 | -74.40278 | 37086 ft | 473 kts | 88° |
| 2026-05-05 23:28 | 18.54890 | -74.33359 | 37078 ft | 473 kts | 88° |
| 2026-05-05 23:28 | 18.54754 | -74.26452 | 37094 ft | 472 kts | 88° |
| 2026-05-05 23:29 | 18.54616 | -74.19526 | 37096 ft | 472 kts | 88° |
| 2026-05-05 23:29 | 18.54475 | -74.12599 | 37094 ft | 472 kts | 88° |
| 2026-05-05 23:30 | 18.54332 | -74.05670 | 37101 ft | 472 kts | 88° |
| 2026-05-05 23:30 | 18.54187 | -73.98742 | 37099 ft | 472 kts | 89° |
| 2026-05-05 23:31 | 18.54039 | -73.91872 | 37094 ft | 471 kts | 89° |
| 2026-05-05 23:31 | 18.53889 | -73.84965 | 37104 ft | 470 kts | 89° |
| 2026-05-05 23:32 | 18.53739 | -73.78155 | 37095 ft | 470 kts | 89° |
| 2026-05-05 23:32 | 18.53587 | -73.71207 | 37055 ft | 474 kts | 90° |
| 2026-05-05 23:33 | 18.53426 | -73.64224 | 37111 ft | 483 kts | 90° |
| 2026-05-05 23:33 | 18.53261 | -73.57136 | 37122 ft | 488 kts | 90° |
| 2026-05-05 23:34 | 18.53091 | -73.49969 | 37105 ft | 486 kts | 90° |
| 2026-05-05 23:34 | 18.52920 | -73.42916 | 37097 ft | 478 kts | 90° |
| 2026-05-05 23:35 | 18.52751 | -73.35932 | 37111 ft | 478 kts | 90° |
| 2026-05-05 23:35 | 18.52578 | -73.28912 | 37108 ft | 479 kts | 90° |
| 2026-05-05 23:36 | 18.52403 | -73.21922 | 37109 ft | 479 kts | 90° |
| 2026-05-05 23:36 | 18.52224 | -73.14895 | 37107 ft | 480 kts | 90° |
| 2026-05-05 23:37 | 18.52043 | -73.07861 | 37109 ft | 481 kts | 90° |
| 2026-05-05 23:37 | 18.51858 | -73.00796 | 37107 ft | 482 kts | 90° |
| 2026-05-05 23:38 | 18.51671 | -72.93730 | 37092 ft | 482 kts | 91° |
| 2026-05-05 23:38 | 18.51481 | -72.86670 | 37093 ft | 483 kts | 91° |
| 2026-05-05 23:39 | 18.51287 | -72.79585 | 37084 ft | 483 kts | 91° |
| 2026-05-05 23:39 | 18.51092 | -72.72527 | 37085 ft | 483 kts | 91° |
| 2026-05-05 23:40 | 18.50893 | -72.65442 | 37071 ft | 483 kts | 91° |
| 2026-05-05 23:40 | 18.50693 | -72.58397 | 37063 ft | 483 kts | 91° |
| 2026-05-05 23:41 | 18.50490 | -72.51312 | 37062 ft | 483 kts | 91° |
| 2026-05-05 23:41 | 18.50283 | -72.44229 | 37053 ft | 483 kts | 91° |
| 2026-05-05 23:42 | 18.50075 | -72.37185 | 37055 ft | 483 kts | 91° |
| 2026-05-05 23:42 | 18.49863 | -72.30095 | 37045 ft | 482 kts | 91° |
| 2026-05-05 23:43 | 18.49649 | -72.23032 | 37047 ft | 482 kts | 91° |
| 2026-05-05 23:43 | 18.49434 | -72.16008 | 37086 ft | 481 kts | 91° |
| 2026-05-05 23:44 | 18.49216 | -72.08952 | 37087 ft | 482 kts | 91° |
| 2026-05-05 23:44 | 18.48994 | -72.01867 | 37088 ft | 482 kts | 91° |
| 2026-05-05 23:45 | 18.48771 | -71.94851 | 37095 ft | 481 kts | 91° |
| 2026-05-05 23:45 | 18.48544 | -71.87794 | 37089 ft | 481 kts | 92° |
| 2026-05-05 23:46 | 18.48316 | -71.80778 | 37103 ft | 481 kts | 92° |
| 2026-05-05 23:46 | 18.48084 | -71.73713 | 37104 ft | 480 kts | 92° |
| 2026-05-05 23:47 | 18.47851 | -71.66715 | 37108 ft | 480 kts | 92° |
| 2026-05-05 23:47 | 18.47615 | -71.59679 | 37110 ft | 480 kts | 92° |
| 2026-05-05 23:48 | 18.47377 | -71.52672 | 37129 ft | 480 kts | 92° |
| 2026-05-05 23:48 | 18.47176 | -71.46826 | 37118 ft | 479 kts | 92° |
| 2026-05-05 23:49 | 18.46934 | -71.39825 | 37111 ft | 479 kts | 92° |
| 2026-05-05 23:49 | 18.46690 | -71.32846 | 37112 ft | 478 kts | 92° |
| 2026-05-05 23:50 | 18.46442 | -71.25853 | 37118 ft | 478 kts | 92° |
| 2026-05-05 23:50 | 18.46192 | -71.18854 | 37119 ft | 477 kts | 92° |
| 2026-05-05 23:51 | 18.45940 | -71.11876 | 37124 ft | 477 kts | 92° |
| 2026-05-05 23:51 | 18.45685 | -71.04890 | 37125 ft | 477 kts | 92° |
| 2026-05-05 23:52 | 18.45428 | -70.97897 | 37132 ft | 477 kts | 92° |
| 2026-05-05 23:52 | 18.45169 | -70.90942 | 37129 ft | 477 kts | 92° |
| 2026-05-05 23:53 | 18.44906 | -70.83953 | 37136 ft | 476 kts | 92° |
| 2026-05-05 23:53 | 18.44642 | -70.76990 | 37133 ft | 476 kts | 92° |
| 2026-05-05 23:54 | 18.44376 | -70.70035 | 37145 ft | 477 kts | 92° |
| 2026-05-05 23:54 | 18.44106 | -70.63057 | 37139 ft | 477 kts | 92° |
| 2026-05-05 23:55 | 18.43833 | -70.56063 | 37154 ft | 477 kts | 92° |
| 2026-05-05 23:55 | 18.43558 | -70.49092 | 37138 ft | 478 kts | 92° |
| 2026-05-05 23:56 | 18.43280 | -70.42110 | 37147 ft | 478 kts | 92° |
| 2026-05-05 23:56 | 18.43003 | -70.35141 | 37130 ft | 480 kts | 92° |
| 2026-05-05 23:57 | 18.42718 | -70.28122 | 37136 ft | 479 kts | 92° |
| 2026-05-05 23:57 | 18.42430 | -70.21106 | 37129 ft | 479 kts | 92° |
| 2026-05-05 23:58 | 18.42140 | -70.14085 | 37118 ft | 479 kts | 92° |
| 2026-05-05 23:58 | 18.41847 | -70.07064 | 37137 ft | 479 kts | 92° |
| 2026-05-05 23:59 | 18.41553 | -70.00055 | 37118 ft | 478 kts | 92° |
| 2026-05-05 23:59 | 18.41257 | -69.93067 | 37134 ft | 478 kts | 92° |
| 2026-05-06 00:00 | 18.40959 | -69.86074 | 37131 ft | 477 kts | 93° |
| 2026-05-06 00:00 | 18.40658 | -69.79090 | 37128 ft | 477 kts | 93° |
| 2026-05-06 00:01 | 18.40356 | -69.72153 | 37132 ft | 477 kts | 93° |
| 2026-05-06 00:01 | 18.40051 | -69.65182 | 37136 ft | 477 kts | 93° |
| 2026-05-06 00:02 | 18.39742 | -69.58199 | 37128 ft | 477 kts | 93° |
| 2026-05-06 00:02 | 18.39430 | -69.51194 | 37125 ft | 478 kts | 93° |
| 2026-05-06 00:03 | 18.39118 | -69.44244 | 37133 ft | 478 kts | 93° |
| 2026-05-06 00:03 | 18.38801 | -69.37235 | 37129 ft | 479 kts | 93° |
| 2026-05-06 00:04 | 18.38481 | -69.30227 | 37122 ft | 480 kts | 93° |
| 2026-05-06 00:04 | 18.38157 | -69.23205 | 37133 ft | 480 kts | 93° |
| 2026-05-06 00:05 | 18.37668 | -69.12672 | 37147 ft | 481 kts | 94° |
| 2026-05-06 00:06 | 18.37336 | -69.05610 | 37147 ft | 481 kts | 94° |
| 2026-05-06 00:06 | 18.37004 | -68.98587 | 37156 ft | 482 kts | 94° |
| 2026-05-06 00:07 | 18.36671 | -68.91594 | 37158 ft | 482 kts | 94° |
| 2026-05-06 00:07 | 18.36333 | -68.84562 | 37146 ft | 482 kts | 94° |
| 2026-05-06 00:08 | 18.35991 | -68.77508 | 37148 ft | 483 kts | 94° |
| 2026-05-06 00:08 | 18.35646 | -68.70429 | 37146 ft | 483 kts | 94° |
| 2026-05-06 00:09 | 18.35300 | -68.63400 | 37144 ft | 483 kts | 94° |
| 2026-05-06 00:09 | 18.34949 | -68.56315 | 37129 ft | 483 kts | 94° |
| 2026-05-06 00:10 | 18.34597 | -68.49256 | 37122 ft | 483 kts | 94° |
| 2026-05-06 00:10 | 18.34244 | -68.42221 | 37124 ft | 483 kts | 95° |
| 2026-05-06 00:11 | 18.33886 | -68.35166 | 37129 ft | 483 kts | 95° |
| 2026-05-06 00:11 | 18.33526 | -68.28108 | 37128 ft | 483 kts | 95° |
| 2026-05-06 00:12 | 18.33162 | -68.21023 | 37123 ft | 483 kts | 95° |
| 2026-05-06 00:12 | 18.32799 | -68.13999 | 37120 ft | 483 kts | 95° |
| 2026-05-06 00:13 | 18.32430 | -68.06916 | 37130 ft | 483 kts | 95° |
| 2026-05-06 00:13 | 18.32060 | -67.99885 | 37126 ft | 483 kts | 95° |
| 2026-05-06 00:14 | 18.31686 | -67.92805 | 37125 ft | 483 kts | 95° |
| 2026-05-06 00:14 | 18.31310 | -67.85740 | 37127 ft | 483 kts | 95° |
| 2026-05-06 00:15 | 18.30934 | -67.78717 | 37126 ft | 483 kts | 95° |
| 2026-05-06 00:15 | 18.30551 | -67.71634 | 37131 ft | 483 kts | 95° |
| 2026-05-06 00:16 | 18.30170 | -67.64611 | 37123 ft | 483 kts | 95° |
| 2026-05-06 00:16 | 18.29783 | -67.57544 | 37129 ft | 483 kts | 95° |
| 2026-05-06 00:17 | 18.29393 | -67.50457 | 37126 ft | 483 kts | 95° |
| 2026-05-06 00:17 | 18.29003 | -67.43421 | 37129 ft | 483 kts | 95° |
| 2026-05-06 00:18 | 18.28608 | -67.36356 | 37137 ft | 483 kts | 95° |
| 2026-05-06 00:18 | 18.28210 | -67.29271 | 37136 ft | 484 kts | 95° |
| 2026-05-06 00:19 | 18.27811 | -67.22212 | 37130 ft | 484 kts | 95° |
| 2026-05-06 00:19 | 18.27411 | -67.15188 | 37144 ft | 483 kts | 95° |
| 2026-05-06 00:20 | 18.27005 | -67.08091 | 37145 ft | 484 kts | 95° |
| 2026-05-06 00:20 | 18.26598 | -67.01041 | 37149 ft | 484 kts | 95° |
| 2026-05-06 00:21 | 18.26187 | -66.93966 | 37132 ft | 483 kts | 95° |
| 2026-05-06 00:21 | 18.25777 | -66.86938 | 37149 ft | 483 kts | 95° |
| 2026-05-06 00:22 | 18.25361 | -66.79858 | 36923 ft | 486 kts | 95° |
| 2026-05-06 00:22 | 18.25151 | -66.76316 | 36678 ft | 483 kts | 95° |
| 2026-05-06 00:22 | 18.24944 | -66.72799 | 36431 ft | 479 kts | 96° |
| 2026-05-06 00:22 | 18.24739 | -66.69352 | 36188 ft | 475 kts | 95° |
| 2026-05-06 00:23 | 18.24534 | -66.65892 | 35943 ft | 472 kts | 95° |
| 2026-05-06 00:23 | 18.24328 | -66.62451 | 35710 ft | 469 kts | 95° |
| 2026-05-06 00:23 | 18.24123 | -66.59030 | 35467 ft | 467 kts | 96° |
| 2026-05-06 00:23 | 18.23918 | -66.55614 | 35234 ft | 464 kts | 96° |
| 2026-05-06 00:24 | 18.23713 | -66.52225 | 35008 ft | 462 kts | 96° |
| 2026-05-06 00:24 | 18.23509 | -66.48862 | 34789 ft | 460 kts | 96° |
| 2026-05-06 00:24 | 18.23305 | -66.45505 | 34552 ft | 458 kts | 96° |
| 2026-05-06 00:24 | 18.23105 | -66.42211 | 34333 ft | 456 kts | 96° |
| 2026-05-06 00:25 | 18.22902 | -66.38883 | 34102 ft | 454 kts | 96° |
| 2026-05-06 00:25 | 18.22700 | -66.35580 | 33840 ft | 452 kts | 96° |
| 2026-05-06 00:25 | 18.22498 | -66.32294 | 33587 ft | 450 kts | 96° |
| 2026-05-06 00:25 | 18.22296 | -66.29018 | 33332 ft | 448 kts | 96° |
| 2026-05-06 00:26 | 18.22094 | -66.25743 | 33086 ft | 446 kts | 95° |
| 2026-05-06 00:26 | 18.21893 | -66.22488 | 32825 ft | 444 kts | 95° |
| 2026-05-06 00:26 | 18.21695 | -66.19297 | 32582 ft | 442 kts | 95° |
| 2026-05-06 00:26 | 18.21494 | -66.16068 | 32333 ft | 440 kts | 95° |
| 2026-05-06 00:27 | 18.21293 | -66.12854 | 32092 ft | 438 kts | 95° |
| 2026-05-06 00:27 | 18.21094 | -66.09661 | 31844 ft | 436 kts | 95° |
| 2026-05-06 00:27 | 18.20894 | -66.06476 | 31603 ft | 435 kts | 95° |
| 2026-05-06 00:27 | 18.20694 | -66.03308 | 31367 ft | 433 kts | 95° |
| 2026-05-06 00:28 | 18.20498 | -66.00191 | 31138 ft | 431 kts | 95° |
| 2026-05-06 00:28 | 18.20299 | -65.97047 | 30891 ft | 430 kts | 95° |
| 2026-05-06 00:28 | 18.20096 | -65.93858 | 29919 ft | 442 kts | 95° |
| 2026-05-06 00:28 | 18.19889 | -65.90618 | 28838 ft | 445 kts | 95° |
| 2026-05-06 00:29 | 18.19681 | -65.87369 | 27788 ft | 446 kts | 94° |
| 2026-05-06 00:29 | 18.19472 | -65.84100 | 26763 ft | 447 kts | 94° |
| 2026-05-06 00:29 | 18.19263 | -65.80831 | 25773 ft | 446 kts | 93° |
| 2026-05-06 00:29 | 18.19056 | -65.77609 | 24835 ft | 445 kts | 93° |
| 2026-05-06 00:30 | 18.18847 | -65.74370 | 23912 ft | 443 kts | 92° |
| 2026-05-06 00:30 | 18.18640 | -65.71150 | 22875 ft | 441 kts | 92° |
| 2026-05-06 00:30 | 18.18431 | -65.67928 | 21806 ft | 437 kts | 93° |
| 2026-05-06 00:30 | 18.18227 | -65.64779 | 21370 ft | 420 kts | 93° |
| 2026-05-06 00:31 | 18.18031 | -65.61786 | 21101 ft | 401 kts | 93° |
| 2026-05-06 00:31 | 18.17843 | -65.58920 | 20842 ft | 384 kts | 93° |
| 2026-05-06 00:31 | 18.17665 | -65.56202 | 20583 ft | 369 kts | 93° |
| 2026-05-06 00:31 | 18.17492 | -65.53554 | 20329 ft | 355 kts | 93° |
| 2026-05-06 00:32 | 18.17324 | -65.50995 | 20084 ft | 345 kts | 93° |
| 2026-05-06 00:32 | 18.17161 | -65.48499 | 19850 ft | 343 kts | 93° |
| 2026-05-06 00:32 | 18.16997 | -65.45985 | 19637 ft | 350 kts | 93° |
| 2026-05-06 00:32 | 18.16828 | -65.43415 | 19418 ft | 354 kts | 93° |
| 2026-05-06 00:33 | 18.16658 | -65.40837 | 19183 ft | 351 kts | 93° |
| 2026-05-06 00:33 | 18.16489 | -65.38288 | 18954 ft | 348 kts | 93° |
| 2026-05-06 00:33 | 18.16377 | -65.36598 | 18807 ft | 347 kts | 93° |
| 2026-05-06 00:33 | 18.16155 | -65.33252 | 18510 ft | 345 kts | 93° |
| 2026-05-06 00:34 | 18.15987 | -65.30736 | 18273 ft | 344 kts | 93° |
| 2026-05-06 00:34 | 18.15820 | -65.28234 | 18018 ft | 343 kts | 93° |
| 2026-05-06 00:34 | 18.15707 | -65.26546 | 17845 ft | 342 kts | 93° |
| 2026-05-06 00:34 | 18.15542 | -65.24083 | 17591 ft | 341 kts | 93° |
| 2026-05-06 00:35 | 18.15374 | -65.21593 | 17342 ft | 341 kts | 93° |
| 2026-05-06 00:35 | 18.15206 | -65.19093 | 17097 ft | 340 kts | 93° |
| 2026-05-06 00:35 | 18.15041 | -65.16645 | 16847 ft | 339 kts | 93° |
| 2026-05-06 00:35 | 18.14874 | -65.14173 | 16603 ft | 338 kts | 94° |
| 2026-05-06 00:36 | 18.14707 | -65.11704 | 16363 ft | 337 kts | 94° |
| 2026-05-06 00:36 | 18.14541 | -65.09248 | 16202 ft | 337 kts | 93° |
| 2026-05-06 00:36 | 18.14373 | -65.06777 | 16159 ft | 338 kts | 94° |
| 2026-05-06 00:36 | 18.14206 | -65.04323 | 16142 ft | 333 kts | 94° |
| 2026-05-06 00:37 | 18.14043 | -65.01928 | 16133 ft | 331 kts | 94° |
| 2026-05-06 00:37 | 18.13877 | -64.99505 | 16142 ft | 333 kts | 93° |
| 2026-05-06 00:37 | 18.13711 | -64.97067 | 16153 ft | 334 kts | 93° |
| 2026-05-06 00:37 | 18.13544 | -64.94631 | 16149 ft | 333 kts | 94° |
| 2026-05-06 00:38 | 18.13376 | -64.92195 | 16142 ft | 333 kts | 93° |
| 2026-05-06 00:38 | 18.13211 | -64.89790 | 16143 ft | 333 kts | 94° |
| 2026-05-06 00:38 | 18.13043 | -64.87364 | 16147 ft | 333 kts | 93° |
| 2026-05-06 00:38 | 18.12876 | -64.84934 | 16143 ft | 333 kts | 93° |
| 2026-05-06 00:39 | 18.12707 | -64.82502 | 16140 ft | 333 kts | 93° |
| 2026-05-06 00:39 | 18.12538 | -64.80063 | 16147 ft | 333 kts | 93° |
| 2026-05-06 00:39 | 18.12370 | -64.77641 | 16148 ft | 332 kts | 93° |
| 2026-05-06 00:39 | 18.12201 | -64.75213 | 16141 ft | 333 kts | 94° |
| 2026-05-06 00:40 | 18.12034 | -64.72812 | 16139 ft | 333 kts | 93° |
| 2026-05-06 00:40 | 18.11864 | -64.70380 | 16146 ft | 333 kts | 94° |
| 2026-05-06 00:40 | 18.11694 | -64.67948 | 16140 ft | 333 kts | 94° |
| 2026-05-06 00:40 | 18.11523 | -64.65506 | 16134 ft | 334 kts | 93° |
| 2026-05-06 00:41 | 18.11352 | -64.63069 | 16140 ft | 333 kts | 94° |
| 2026-05-06 00:41 | 18.11180 | -64.60637 | 16139 ft | 333 kts | 93° |
| 2026-05-06 00:41 | 18.11012 | -64.58240 | 16137 ft | 333 kts | 93° |
| 2026-05-06 00:41 | 18.10840 | -64.55808 | 16141 ft | 333 kts | 94° |
| 2026-05-06 00:42 | 18.10668 | -64.53378 | 16141 ft | 333 kts | 93° |
| 2026-05-06 00:42 | 18.10495 | -64.50931 | 15929 ft | 337 kts | 94° |
| 2026-05-06 00:42 | 18.10317 | -64.48432 | 14987 ft | 351 kts | 94° |
| 2026-05-06 00:42 | 18.10133 | -64.45837 | 14018 ft | 358 kts | 94° |
| 2026-05-06 00:43 | 18.09947 | -64.43243 | 12964 ft | 363 kts | 95° |
| 2026-05-06 00:43 | 18.09755 | -64.40572 | 11908 ft | 366 kts | 94° |
| 2026-05-06 00:43 | 18.09563 | -64.37894 | 10896 ft | 367 kts | 94° |
| 2026-05-06 00:43 | 18.09371 | -64.35220 | 9911 ft | 366 kts | 94° |
| 2026-05-06 00:44 | 18.09180 | -64.32555 | 8842 ft | 364 kts | 94° |
| 2026-05-06 00:44 | 18.08996 | -64.29990 | 8471 ft | 344 kts | 94° |
| 2026-05-06 00:44 | 18.08821 | -64.27559 | 8308 ft | 321 kts | 95° |
| 2026-05-06 00:44 | 18.08658 | -64.25291 | 8192 ft | 303 kts | 95° |
| 2026-05-06 00:45 | 18.08502 | -64.23130 | 8148 ft | 290 kts | 95° |
| 2026-05-06 00:45 | 18.08352 | -64.21053 | 8142 ft | 282 kts | 94° |
| 2026-05-06 00:45 | 18.08204 | -64.19012 | 8148 ft | 277 kts | 95° |
| 2026-05-06 00:45 | 18.08060 | -64.17026 | 8146 ft | 274 kts | 95° |
| 2026-05-06 00:46 | 18.07914 | -64.15010 | 8149 ft | 277 kts | 95° |
| 2026-05-06 00:46 | 18.07766 | -64.12979 | 8158 ft | 278 kts | 95° |
| 2026-05-06 00:46 | 18.07617 | -64.10936 | 8162 ft | 279 kts | 95° |
| 2026-05-06 00:46 | 18.07470 | -64.08929 | 8164 ft | 278 kts | 95° |
| 2026-05-06 00:47 | 18.07321 | -64.06896 | 8148 ft | 278 kts | 95° |
| 2026-05-06 00:47 | 18.07173 | -64.04869 | 8149 ft | 278 kts | 95° |
| 2026-05-06 00:47 | 18.07024 | -64.02843 | 8152 ft | 278 kts | 94° |
| 2026-05-06 00:47 | 18.06875 | -64.00819 | 8150 ft | 277 kts | 94° |
| 2026-05-06 00:48 | 18.06727 | -63.98803 | 8157 ft | 276 kts | 94° |
| 2026-05-06 00:48 | 18.06580 | -63.96800 | 8152 ft | 273 kts | 95° |
| 2026-05-06 00:48 | 18.06435 | -63.94845 | 8156 ft | 271 kts | 94° |
| 2026-05-06 00:48 | 18.06291 | -63.92888 | 8161 ft | 268 kts | 95° |
| 2026-05-06 00:49 | 18.06146 | -63.90934 | 8074 ft | 269 kts | 95° |
| 2026-05-06 00:49 | 18.05999 | -63.88947 | 7824 ft | 275 kts | 95° |
| 2026-05-06 00:49 | 18.05851 | -63.86952 | 7596 ft | 273 kts | 95° |
| 2026-05-06 00:49 | 18.05703 | -63.84973 | 7361 ft | 270 kts | 95° |
| 2026-05-06 00:50 | 18.05558 | -63.83014 | 7116 ft | 267 kts | 95° |
| 2026-05-06 00:50 | 18.05413 | -63.81076 | 6883 ft | 265 kts | 95° |
| 2026-05-06 00:50 | 18.05270 | -63.79153 | 6645 ft | 263 kts | 95° |
| 2026-05-06 00:50 | 18.05128 | -63.77249 | 6413 ft | 260 kts | 95° |
| 2026-05-06 00:51 | 18.04987 | -63.75366 | 6159 ft | 257 kts | 95° |
| 2026-05-06 00:51 | 18.04849 | -63.73524 | 5920 ft | 256 kts | 95° |
| 2026-05-06 00:51 | 18.04709 | -63.71665 | 5677 ft | 254 kts | 95° |
| 2026-05-06 00:51 | 18.04571 | -63.69822 | 5436 ft | 252 kts | 95° |
| 2026-05-06 00:52 | 18.04433 | -63.67992 | 5200 ft | 250 kts | 95° |
| 2026-05-06 00:52 | 18.04297 | -63.66175 | 4953 ft | 249 kts | 95° |
| 2026-05-06 00:52 | 18.04160 | -63.64363 | 4715 ft | 248 kts | 95° |
| 2026-05-06 00:52 | 18.04024 | -63.62561 | 4468 ft | 246 kts | 95° |
| 2026-05-06 00:53 | 18.03890 | -63.60789 | 4314 ft | 238 kts | 95° |
| 2026-05-06 00:53 | 18.03764 | -63.59113 | 4212 ft | 223 kts | 95° |
| 2026-05-06 00:53 | 18.03646 | -63.57549 | 4148 ft | 205 kts | 95° |
| 2026-05-06 00:53 | 18.03538 | -63.56110 | 4055 ft | 189 kts | 96° |
| 2026-05-06 00:54 | 18.03437 | -63.54778 | 3939 ft | 177 kts | 95° |
| 2026-05-06 00:54 | 18.03343 | -63.53523 | 3733 ft | 169 kts | 96° |
| 2026-05-06 00:54 | 18.03249 | -63.52296 | 3467 ft | 167 kts | 96° |
| 2026-05-06 00:54 | 18.03158 | -63.51100 | 3256 ft | 167 kts | 96° |
| 2026-05-06 00:55 | 18.03065 | -63.49889 | 3012 ft | 165 kts | 96° |
| 2026-05-06 00:55 | 18.02974 | -63.48701 | 2755 ft | 161 kts | 95° |
| 2026-05-06 00:55 | 18.02884 | -63.47521 | 2532 ft | 163 kts | 95° |
| 2026-05-06 00:55 | 18.02792 | -63.46326 | 2288 ft | 164 kts | 95° |
| 2026-05-06 00:56 | 18.02702 | -63.45144 | 2024 ft | 161 kts | 95° |
| 2026-05-06 00:56 | 18.02616 | -63.44014 | 2005 ft | 152 kts | 94° |
| 2026-05-06 00:56 | 18.02530 | -63.42887 | 2042 ft | 157 kts | 94° |
| 2026-05-06 00:56 | 18.02441 | -63.41722 | 2037 ft | 161 kts | 95° |
| 2026-05-06 00:57 | 18.02351 | -63.40547 | 2043 ft | 161 kts | 95° |
| 2026-05-06 00:57 | 18.02266 | -63.39435 | 2043 ft | 159 kts | 95° |
| 2026-05-06 00:57 | 18.02175 | -63.38257 | 2044 ft | 160 kts | 94° |
| 2026-05-06 00:57 | 18.02088 | -63.37118 | 2103 ft | 161 kts | 94° |
| 2026-05-06 00:58 | 18.01997 | -63.35924 | 2064 ft | 163 kts | 95° |
| 2026-05-06 00:58 | 18.01905 | -63.34738 | 2051 ft | 162 kts | 95° |
| 2026-05-06 00:58 | 18.01815 | -63.33559 | 2027 ft | 160 kts | 95° |
| 2026-05-06 00:58 | 18.01725 | -63.32398 | 2034 ft | 163 kts | 95° |
| 2026-05-06 00:59 | 18.01633 | -63.31215 | 2048 ft | 163 kts | 95° |
| 2026-05-06 00:59 | 18.01541 | -63.30018 | 1907 ft | 163 kts | 96° |
| 2026-05-06 00:59 | 18.01505 | -63.28824 | 1724 ft | 162 kts | 85° |
| 2026-05-06 00:59 | 18.01678 | -63.27666 | 1638 ft | 161 kts | 82° |
| 2026-05-06 01:00 | 18.01835 | -63.26514 | 1596 ft | 157 kts | 85° |
| 2026-05-06 01:00 | 18.01981 | -63.25440 | 1570 ft | 141 kts | 85° |
| 2026-05-06 01:00 | 18.02117 | -63.24429 | 1601 ft | 142 kts | 83° |
| 2026-05-06 01:00 | 18.02259 | -63.23374 | 1618 ft | 147 kts | 85° |
| 2026-05-06 01:01 | 18.02402 | -63.22306 | 1590 ft | 150 kts | 85° |
| 2026-05-06 01:01 | 18.02546 | -63.21221 | 1601 ft | 155 kts | 83° |
| 2026-05-06 01:01 | 18.02694 | -63.20111 | 1578 ft | 153 kts | 83° |
| 2026-05-06 01:01 | 18.02844 | -63.18977 | 1395 ft | 157 kts | 84° |
| 2026-05-06 01:02 | 18.02993 | -63.17839 | 1194 ft | 155 kts | 83° |
| 2026-05-06 01:02 | 18.03143 | -63.16724 | 926 ft | 153 kts | 80° |
| 2026-05-06 01:02 | 18.03465 | -63.15649 | 561 ft | 155 kts | 77° |
| 2026-05-06 01:02 | 18.03613 | -63.14583 | 334 ft | 141 kts | 88° |
| 2026-05-06 01:03 | 18.03691 | -63.13571 | 284 ft | 137 kts | 81° |
| 2026-05-06 01:03 | 18.03859 | -63.12570 | 237 ft | 142 kts | 85° |
| 2026-05-06 01:03 | 18.04003 | -63.11502 | 27 ft | 146 kts | 83° |
| 2026-05-06 01:03 | 18.04081 | -63.10965 | 27 ft | 26 kts | 81° |
| 2026-05-06 01:04 | 18.04102 | -63.10811 | 26 ft | 10 kts | 82° |
| 2026-05-06 01:04 | 18.04113 | -63.10736 | 26 ft | 10 kts | 81° |
| 2026-05-06 01:04 | 18.04124 | -63.10663 | 26 ft | 10 kts | 81° |
| 2026-05-06 01:04 | 18.04136 | -63.10580 | 27 ft | 16 kts | 81° |
| 2026-05-06 01:05 | 18.04157 | -63.10439 | 27 ft | 21 kts | 79° |
| 2026-05-06 01:05 | 18.04179 | -63.10288 | 26 ft | 21 kts | 81° |
| 2026-05-06 01:05 | 18.04200 | -63.10134 | 30 ft | 22 kts | 82° |
| 2026-05-06 01:05 | 18.04223 | -63.09980 | 26 ft | 21 kts | 81° |
| 2026-05-06 01:06 | 18.04256 | -63.09862 | 31 ft | 16 kts | 121° |
| 2026-05-06 01:06 | 18.04230 | -63.09848 | 26 ft | 0 kts | 186° |
| 2026-05-06 01:06 | 18.04228 | -63.09852 | 26 ft | 1 kts | 230° |
| 2026-05-06 01:06 | 18.04229 | -63.09889 | 30 ft | 15 kts | 273° |
| 2026-05-06 01:07 | 18.04219 | -63.10007 | 27 ft | 18 kts | 259° |
| 2026-05-06 01:07 | 18.04195 | -63.10172 | 26 ft | 23 kts | 262° |
| 2026-05-06 01:07 | 18.04172 | -63.10335 | 26 ft | 23 kts | 262° |
| 2026-05-06 01:07 | 18.04150 | -63.10496 | 27 ft | 22 kts | 261° |
| 2026-05-06 01:08 | 18.04129 | -63.10652 | 27 ft | 21 kts | 266° |
| 2026-05-06 01:08 | 18.04107 | -63.10805 | 26 ft | 21 kts | 262° |
| 2026-05-06 01:08 | 18.04101 | -63.10969 | 27 ft | 24 kts | 300° |
| 2026-05-06 01:08 | 18.04164 | -63.11081 | 27 ft | 17 kts | 257° |
| 2026-05-06 01:09 | 18.04188 | -63.11177 | 28 ft | 5 kts | 343° |
| 2026-05-06 01:09 | 18.04201 | -63.11179 | 28 ft | 0 kts | 349° |